createdAt,value
2023-05-10T00:02:02.834Z,90442.25
2023-05-10T00:04:47.603Z,90433.25
2023-05-10T00:07:32.754Z,90438.19
2023-05-10T00:10:17.813Z,90429.00
2023-05-10T00:13:02.736Z,90424.56
2023-05-10T00:15:47.648Z,90419.03
2023-05-10T00:18:32.675Z,90418.09
2023-05-10T00:21:17.678Z,90403.94
2023-05-10T00:24:02.512Z,90414.81
2023-05-10T00:26:47.492Z,90421.41
2023-05-10T00:29:32.469Z,90419.72
2023-05-10T00:32:17.625Z,90425.22
2023-05-10T00:35:02.469Z,90431.47
2023-05-10T00:37:47.371Z,90439.78
2023-05-10T00:40:32.343Z,90438.38
2023-05-10T00:43:17.264Z,90437.22
2023-05-10T00:46:02.298Z,90435.34
2023-05-10T00:48:47.266Z,90441.22
2023-05-10T00:51:32.180Z,90445.31
2023-05-10T00:54:17.067Z,90437.81
2023-05-10T00:57:02.060Z,90446.28
2023-05-10T00:59:47.066Z,90443.34
2023-05-10T01:02:31.938Z,90450.72
2023-05-10T01:05:16.858Z,90445.94
2023-05-10T01:08:01.788Z,90447.28
2023-05-10T01:10:46.793Z,90442.53
2023-05-10T01:13:31.770Z,90445.06
2023-05-10T01:16:16.862Z,90441.25
2023-05-10T01:19:01.788Z,90438.84
2023-05-10T01:21:46.862Z,90443.25
2023-05-10T01:24:31.893Z,90439.97
2023-05-10T01:27:16.866Z,90431.69
2023-05-10T01:30:14.808Z,90429.28
2023-05-10T01:33:00.410Z,90429.66
2023-05-10T01:35:45.420Z,90423.97
2023-05-10T01:38:30.305Z,90427.63
2023-05-10T01:41:15.304Z,90427.09
2023-05-10T01:44:00.265Z,90426.88
2023-05-10T01:46:45.119Z,90423.50
2023-05-10T01:49:30.054Z,90414.88
2023-05-10T01:52:15.027Z,90419.63
2023-05-10T01:55:00.121Z,90423.47
2023-05-10T01:57:45.098Z,90421.63
2023-05-10T02:00:30.217Z,90425.28
2023-05-10T02:03:15.296Z,90434.28
2023-05-10T02:06:00.254Z,90439.97
2023-05-10T02:08:45.255Z,90441.28
2023-05-10T02:11:30.383Z,90441.16
2023-05-10T02:14:15.212Z,90444.44
2023-05-10T02:17:00.495Z,90439.34
2023-05-10T02:19:45.630Z,90440.38
2023-05-10T02:22:30.710Z,90432.44
2023-05-10T02:25:15.877Z,90432.09
2023-05-10T02:28:00.925Z,90426.19
2023-05-10T02:30:46.083Z,90423.38
2023-05-10T02:33:31.078Z,90428.56
2023-05-10T02:36:16.173Z,90427.09
2023-05-10T02:39:01.013Z,90432.97
2023-05-10T02:41:45.962Z,90430.78
2023-05-10T02:44:31.085Z,90430.03
2023-05-10T02:47:16.210Z,90430.78
2023-05-10T02:50:01.234Z,90431.31
2023-05-10T02:52:46.102Z,90434.47
2023-05-10T02:55:32.152Z,90441.00
2023-05-10T02:58:16.984Z,90446.84
2023-05-10T03:01:01.768Z,90439.03
2023-05-10T03:03:46.884Z,90437.38
2023-05-10T03:06:31.822Z,90442.16
2023-05-10T03:09:16.762Z,90439.19
2023-05-10T03:12:01.427Z,90440.59
2023-05-10T03:14:46.494Z,90438.19
2023-05-10T03:17:31.505Z,90439.94
2023-05-10T03:20:16.722Z,90440.47
2023-05-10T03:23:01.954Z,90445.84
2023-05-10T03:25:46.576Z,90450.91
2023-05-10T03:28:31.591Z,90449.47
2023-05-10T03:31:16.499Z,90454.94
2023-05-10T03:34:01.491Z,90449.94
2023-05-10T03:36:46.473Z,90438.53
2023-05-10T03:39:31.607Z,90440.22
2023-05-10T03:42:16.563Z,90428.78
2023-05-10T03:45:01.503Z,90436.97
2023-05-10T03:47:46.719Z,90428.63
2023-05-10T03:50:31.608Z,90430.25
2023-05-10T03:53:16.935Z,90431.78
2023-05-10T03:56:01.619Z,90422.78
2023-05-10T03:58:46.697Z,90420.78
2023-05-10T04:01:31.598Z,90420.56
2023-05-10T04:04:16.837Z,90423.00
2023-05-10T04:07:01.741Z,90422.09
2023-05-10T04:09:46.745Z,90415.69
2023-05-10T04:12:31.809Z,90410.19
2023-05-10T04:15:16.929Z,90415.69
2023-05-10T04:18:02.223Z,90411.56
2023-05-10T04:20:47.045Z,90417.19
2023-05-10T04:23:32.090Z,90407.78
2023-05-10T04:26:17.246Z,90414.63
2023-05-10T04:29:02.167Z,90406.59
2023-05-10T04:31:47.072Z,90404.84
2023-05-10T04:34:31.959Z,90409.84
2023-05-10T04:37:16.892Z,90408.16
2023-05-10T04:40:01.480Z,90417.34
2023-05-10T04:42:46.080Z,90408.03
2023-05-10T04:45:30.932Z,90411.09
2023-05-10T04:48:15.588Z,90413.16
2023-05-10T04:51:00.647Z,90418.09
2023-05-10T04:53:54.146Z,90419.91
2023-05-10T04:56:47.263Z,90421.47
2023-05-10T05:02:17.082Z,90409.97
2023-05-10T05:05:01.931Z,90411.31
2023-05-10T05:07:47.095Z,90424.97
2023-05-10T05:10:32.186Z,90419.66
2023-05-10T05:13:16.871Z,90424.81
2023-05-10T05:16:01.775Z,90427.38
2023-05-10T05:18:46.606Z,90423.34
2023-05-10T05:21:31.783Z,90428.28
2023-05-10T05:24:16.702Z,90422.78
2023-05-10T05:27:01.640Z,90435.50
2023-05-10T05:29:46.520Z,90436.84
2023-05-10T05:32:31.622Z,90431.56
2023-05-10T05:35:16.671Z,90429.00
2023-05-10T05:38:01.576Z,90431.75
2023-05-10T05:40:46.577Z,90428.88
2023-05-10T05:43:31.665Z,90440.50
2023-05-10T05:46:16.780Z,90436.69
2023-05-10T05:49:01.717Z,90450.97
2023-05-10T05:51:46.655Z,90447.66
2023-05-10T05:54:31.704Z,90438.97
2023-05-10T05:57:16.690Z,90439.50
2023-05-10T06:00:01.616Z,90441.81
2023-05-10T06:02:46.690Z,90439.66
2023-05-10T06:05:31.779Z,90431.25
2023-05-10T06:08:16.614Z,90443.06
2023-05-10T06:11:01.730Z,90441.75
2023-05-10T06:13:46.709Z,90448.72
2023-05-10T06:16:31.805Z,90451.06
2023-05-10T06:19:16.544Z,90447.19
2023-05-10T06:22:01.583Z,90456.63
2023-05-10T06:24:46.717Z,90447.84
2023-05-10T06:27:31.768Z,90448.38
2023-05-10T06:30:16.907Z,90445.19
2023-05-10T06:33:01.947Z,90451.06
2023-05-10T06:35:46.908Z,90453.72
2023-05-10T06:38:31.812Z,90453.91
2023-05-10T06:41:16.868Z,90446.44
2023-05-10T06:44:01.773Z,90445.28
2023-05-10T06:46:46.749Z,90443.81
2023-05-10T06:49:31.737Z,90440.53
2023-05-10T06:52:16.660Z,90446.19
2023-05-10T06:55:01.621Z,90448.84
2023-05-10T06:57:46.354Z,90444.28
2023-05-10T07:00:31.403Z,90448.00
2023-05-10T07:03:16.407Z,90445.19
2023-05-10T07:06:01.293Z,90445.97
2023-05-10T07:08:46.343Z,90446.25
2023-05-10T07:11:31.299Z,90454.88
2023-05-10T07:14:16.283Z,90450.06
2023-05-10T07:17:01.320Z,90448.94
2023-05-10T07:19:46.365Z,90445.78
2023-05-10T07:22:31.300Z,90445.28
2023-05-10T07:25:16.439Z,90450.81
2023-05-10T07:28:01.601Z,90453.56
2023-05-10T07:30:46.443Z,90447.13
2023-05-10T07:33:31.304Z,90444.41
2023-05-10T07:36:16.300Z,90444.38
2023-05-10T07:39:01.429Z,90446.56
2023-05-10T07:41:46.538Z,90447.84
2023-05-10T07:44:31.711Z,90453.72
2023-05-10T07:47:16.953Z,90447.47
2023-05-10T07:50:01.500Z,90455.78
2023-05-10T07:52:46.095Z,90449.47
2023-05-10T07:55:31.103Z,90451.44
2023-05-10T07:58:15.852Z,90451.28
2023-05-10T08:01:00.463Z,90456.78
2023-05-10T08:03:52.982Z,90448.13
2023-05-10T08:06:38.361Z,90448.94
2023-05-10T08:09:23.442Z,90445.22
2023-05-10T08:12:08.472Z,90448.94
2023-05-10T08:14:53.360Z,90452.38
2023-05-10T08:17:38.513Z,90445.41
2023-05-10T08:20:23.465Z,90444.03
2023-05-10T08:23:08.476Z,90453.03
2023-05-10T08:25:53.432Z,90456.59
2023-05-10T08:28:38.402Z,90442.69
2023-05-10T08:31:23.327Z,90438.66
2023-05-10T08:34:08.133Z,90441.06
2023-05-10T08:36:52.789Z,90448.81
2023-05-10T08:39:37.504Z,90444.00
2023-05-10T08:42:22.221Z,90437.31
2023-05-10T08:45:06.881Z,90440.78
2023-05-10T08:47:51.613Z,90447.31
2023-05-10T08:50:36.376Z,90448.56
2023-05-10T08:53:21.493Z,90447.03
2023-05-10T08:56:06.316Z,90438.47
2023-05-10T08:58:51.055Z,90439.31
2023-05-10T09:01:38.613Z,90425.44
2023-05-10T09:04:24.472Z,90427.72
2023-05-10T09:07:09.587Z,90427.88
2023-05-10T09:09:54.667Z,90425.97
2023-05-10T09:12:39.813Z,90428.16
2023-05-10T09:15:24.742Z,90420.06
2023-05-10T09:18:09.777Z,90424.91
2023-05-10T09:20:54.810Z,90415.50
2023-05-10T09:23:39.460Z,90414.28
2023-05-10T09:26:24.519Z,90420.88
2023-05-10T09:29:09.320Z,90426.03
2023-05-10T09:31:54.227Z,90414.78
2023-05-10T09:34:39.227Z,90416.50
2023-05-10T09:37:24.098Z,90413.34
2023-05-10T09:40:09.261Z,90415.22
2023-05-10T09:42:53.962Z,90417.97
2023-05-10T09:45:39.372Z,90418.44
2023-05-10T09:48:24.397Z,90421.34
2023-05-10T09:51:08.992Z,90431.22
2023-05-10T09:53:53.958Z,90431.88
2023-05-10T09:56:38.908Z,90434.84
2023-05-10T09:59:23.695Z,90429.94
2023-05-10T10:02:08.321Z,90427.16
2023-05-10T10:04:53.558Z,90426.63
2023-05-10T10:07:38.374Z,90423.28
2023-05-10T10:10:23.625Z,90421.97
2023-05-10T10:13:10.689Z,90414.47
2023-05-10T10:15:55.405Z,90419.06
2023-05-10T10:18:40.104Z,90416.69
2023-05-10T10:21:24.911Z,90416.06
2023-05-10T10:24:09.699Z,90416.38
2023-05-10T10:26:54.407Z,90403.69
2023-05-10T10:29:39.321Z,90405.09
2023-05-10T10:32:24.070Z,90403.63
2023-05-10T10:35:09.090Z,90409.81
2023-05-10T10:37:53.813Z,90404.81
2023-05-10T10:40:38.690Z,90395.41
2023-05-10T10:43:23.763Z,90403.03
2023-05-10T10:46:08.398Z,90397.66
2023-05-10T10:48:53.426Z,90392.44
2023-05-10T10:51:38.402Z,90396.69
2023-05-10T10:54:23.109Z,90391.38
2023-05-10T10:57:08.073Z,90390.78
2023-05-10T10:59:52.904Z,90387.03
2023-05-10T11:02:38.107Z,90380.44
2023-05-10T11:05:22.844Z,90382.78
2023-05-10T11:08:07.764Z,90382.91
2023-05-10T11:10:52.652Z,90392.16
2023-05-10T11:13:37.691Z,90393.56
2023-05-10T11:16:22.335Z,90386.72
2023-05-10T11:19:07.468Z,90384.50
2023-05-10T11:21:52.333Z,90384.41
2023-05-10T11:24:37.267Z,90384.56
2023-05-10T11:27:22.335Z,90384.94
2023-05-10T11:30:07.243Z,90380.94
2023-05-10T11:32:52.106Z,90382.53
2023-05-10T11:35:37.877Z,90373.75
2023-05-10T11:38:22.885Z,90372.84
2023-05-10T11:41:07.529Z,90372.66
2023-05-10T11:43:52.604Z,90369.88
2023-05-10T11:46:37.319Z,90371.34
2023-05-10T11:49:22.235Z,90376.13
2023-05-10T11:52:07.288Z,90367.81
2023-05-10T11:54:52.325Z,90370.53
2023-05-10T11:57:37.065Z,90376.72
2023-05-10T12:00:21.815Z,90370.16
2023-05-10T12:03:06.612Z,90375.03
2023-05-10T12:05:51.681Z,90379.75
2023-05-10T12:08:40.774Z,90374.88
2023-05-10T12:11:25.867Z,90375.19
2023-05-10T12:14:10.849Z,90371.81
2023-05-10T12:16:56.136Z,90386.41
2023-05-10T12:19:41.022Z,90381.47
2023-05-10T12:22:25.758Z,90374.63
2023-05-10T12:25:10.699Z,90377.88
2023-05-10T12:27:55.541Z,90374.22
2023-05-10T12:30:40.752Z,90377.31
2023-05-10T12:33:25.670Z,90377.44
2023-05-10T12:36:10.529Z,90381.13
2023-05-10T12:38:55.415Z,90380.63
2023-05-10T12:41:42.888Z,90384.88
2023-05-10T12:44:28.687Z,90378.97
2023-05-10T12:47:13.689Z,90374.06
2023-05-10T12:49:58.600Z,90385.06
2023-05-10T12:52:43.538Z,90378.56
2023-05-10T12:55:28.387Z,90385.78
2023-05-10T12:58:17.925Z,90380.53
2023-05-10T13:01:12.415Z,90385.94
2023-05-10T13:03:57.445Z,90381.94
2023-05-10T13:06:42.115Z,90382.16
2023-05-10T13:09:26.867Z,90381.03
2023-05-10T13:12:11.948Z,90386.63
2023-05-10T13:14:56.818Z,90378.47
2023-05-10T13:17:41.723Z,90383.19
2023-05-10T13:20:26.774Z,90387.94
2023-05-10T13:23:11.751Z,90396.09
2023-05-10T13:25:56.911Z,90378.66
2023-05-10T13:28:42.009Z,90386.47
2023-05-10T13:31:27.251Z,90389.97
2023-05-10T13:34:12.219Z,90387.16
2023-05-10T13:36:57.282Z,90386.63
2023-05-10T13:39:43.328Z,90373.69
2023-05-10T13:42:28.362Z,90372.66
2023-05-10T13:45:13.427Z,90373.03
2023-05-10T13:47:58.449Z,90377.19
2023-05-10T13:50:43.155Z,90373.91
2023-05-10T13:53:28.111Z,90373.88
2023-05-10T13:56:12.871Z,90368.19
2023-05-10T13:58:57.823Z,90358.94
2023-05-10T14:01:42.411Z,90359.84
2023-05-10T14:04:27.408Z,90360.53
2023-05-10T14:07:12.353Z,90362.63
2023-05-10T14:09:57.328Z,90366.97
2023-05-10T14:12:42.332Z,90360.38
2023-05-10T14:15:27.320Z,90356.88
2023-05-10T14:18:12.266Z,90367.81
2023-05-10T14:20:56.988Z,90368.06
2023-05-10T14:23:41.979Z,90364.19
2023-05-10T14:26:26.748Z,90375.75
2023-05-10T14:29:12.688Z,90372.81
2023-05-10T14:31:57.802Z,90369.97
2023-05-10T14:34:42.641Z,90379.63
2023-05-10T14:37:27.572Z,90381.44
2023-05-10T14:40:12.772Z,90381.94
2023-05-10T14:42:57.942Z,90387.75
2023-05-10T14:45:42.923Z,90377.22
2023-05-10T14:48:28.158Z,90385.28
2023-05-10T14:51:13.124Z,90388.19
2023-05-10T14:53:58.056Z,90384.25
2023-05-10T14:56:42.947Z,90388.97
2023-05-10T14:59:27.673Z,90392.31
2023-05-10T15:02:13.083Z,90391.06
2023-05-10T15:04:58.104Z,90381.84
2023-05-10T15:07:43.019Z,90384.19
2023-05-10T15:10:28.050Z,90375.44
2023-05-10T15:13:12.808Z,90377.25
2023-05-10T15:15:57.897Z,90374.28
2023-05-10T15:18:42.704Z,90380.97
2023-05-10T15:21:27.588Z,90383.69
2023-05-10T15:24:12.567Z,90383.94
2023-05-10T15:26:57.664Z,90383.03
2023-05-10T15:29:42.540Z,90393.84
2023-05-10T15:32:27.769Z,90386.69
2023-05-10T15:35:12.528Z,90388.69
2023-05-10T15:37:57.543Z,90404.91
2023-05-10T15:40:42.455Z,90391.63
2023-05-10T15:43:27.408Z,90391.28
2023-05-10T15:46:12.480Z,90394.47
2023-05-10T15:48:57.314Z,90404.41
2023-05-10T15:51:42.315Z,90413.44
2023-05-10T15:54:27.168Z,90400.59
2023-05-10T15:57:12.347Z,90412.44
2023-05-10T15:59:57.505Z,90422.00
2023-05-10T16:02:42.837Z,90414.84
2023-05-10T16:05:27.697Z,90428.47
2023-05-10T16:08:14.916Z,90429.56
2023-05-10T16:10:59.995Z,90431.41
2023-05-10T16:13:44.971Z,90428.28
2023-05-10T16:16:29.841Z,90433.78
2023-05-10T16:19:14.825Z,90434.38
2023-05-10T16:21:59.632Z,90428.13
2023-05-10T16:24:44.684Z,90437.69
2023-05-10T16:27:29.707Z,90435.28
2023-05-10T16:30:14.485Z,90435.31
2023-05-10T16:32:59.417Z,90437.47
2023-05-10T16:35:44.392Z,90432.66
2023-05-10T16:38:29.260Z,90425.09
2023-05-10T16:41:14.296Z,90432.31
2023-05-10T16:43:59.211Z,90431.97
2023-05-10T16:46:44.650Z,90431.03
2023-05-10T16:49:29.491Z,90437.88
2023-05-10T16:52:14.415Z,90437.69
2023-05-10T16:54:59.149Z,90438.78
2023-05-10T16:57:44.231Z,90431.03
2023-05-10T17:00:30.463Z,90434.34
2023-05-10T17:03:15.432Z,90440.81
2023-05-10T17:06:00.304Z,90437.84
2023-05-10T17:08:45.234Z,90441.88
2023-05-10T17:11:30.196Z,90452.91
2023-05-10T17:14:18.160Z,90447.41
2023-05-10T17:17:02.788Z,90446.59
2023-05-10T17:19:48.011Z,90446.81
2023-05-10T17:22:32.901Z,90453.81
2023-05-10T17:25:17.842Z,90451.56
2023-05-10T17:28:04.848Z,90451.03
2023-05-10T17:30:49.705Z,90453.06
2023-05-10T17:33:34.632Z,90467.25
2023-05-10T17:36:19.269Z,90456.72
2023-05-10T17:39:04.237Z,90468.34
2023-05-10T17:41:49.124Z,90463.63
2023-05-10T17:44:34.239Z,90457.22
2023-05-10T17:47:18.956Z,90472.72
2023-05-10T17:50:04.034Z,90462.69
2023-05-10T17:52:48.834Z,90475.41
2023-05-10T17:55:33.966Z,90477.28
2023-05-10T17:58:18.778Z,90475.41
2023-05-10T18:01:03.660Z,90473.78
2023-05-10T18:03:48.410Z,90479.09
2023-05-10T18:06:33.550Z,90476.13
2023-05-10T18:09:18.212Z,90481.34
2023-05-10T18:12:03.318Z,90480.41
2023-05-10T18:14:47.867Z,90480.00
2023-05-10T18:17:32.675Z,90480.28
2023-05-10T18:23:35.818Z,90487.06
2023-05-10T18:26:24.000Z,90482.22
2023-05-10T18:29:09.020Z,90489.00
2023-05-10T18:34:54.944Z,90486.84
2023-05-10T18:37:40.340Z,90499.19
2023-05-10T18:40:25.619Z,90499.91
2023-05-10T18:43:10.474Z,90503.78
2023-05-10T18:45:55.586Z,90512.59
2023-05-10T18:48:40.297Z,90499.34
2023-05-10T18:51:25.370Z,90509.84
2023-05-10T18:54:10.345Z,90514.44
2023-05-10T18:56:55.322Z,90510.75
2023-05-10T18:59:40.265Z,90512.34
2023-05-10T19:02:25.555Z,90513.41
2023-05-10T19:05:10.674Z,90518.19
2023-05-10T19:07:55.779Z,90506.38
2023-05-10T19:10:40.815Z,90520.81
2023-05-10T19:13:25.858Z,90520.59
2023-05-10T19:16:11.277Z,90523.44
2023-05-10T19:18:57.022Z,90531.19
2023-05-10T19:21:41.909Z,90525.88
2023-05-10T19:24:27.250Z,90532.31
2023-05-10T19:27:12.472Z,90531.94
2023-05-10T19:29:58.219Z,90531.56
2023-05-10T19:32:43.133Z,90534.88
2023-05-10T19:35:27.963Z,90536.75
2023-05-10T19:38:12.803Z,90548.31
2023-05-10T19:40:58.185Z,90551.66
2023-05-10T19:43:43.249Z,90549.97
2023-05-10T19:46:28.358Z,90555.03
2023-05-10T19:49:13.749Z,90557.75
2023-05-10T19:51:59.003Z,90557.63
2023-05-10T19:54:44.175Z,90556.47
2023-05-10T19:57:28.836Z,90561.66
2023-05-10T20:00:13.582Z,90555.38
2023-05-10T20:02:58.660Z,90558.75
2023-05-10T20:05:43.724Z,90563.56
2023-05-10T20:08:28.445Z,90567.50
2023-05-10T20:11:13.543Z,90564.47
2023-05-10T20:13:58.802Z,90566.94
2023-05-10T20:16:43.534Z,90572.75
2023-05-10T20:19:32.109Z,90571.19
2023-05-10T20:22:17.154Z,90564.84
2023-05-10T20:25:01.880Z,90559.63
2023-05-10T20:27:46.604Z,90566.84
2023-05-10T20:30:31.618Z,90567.38
2023-05-10T20:33:16.804Z,90566.97
2023-05-10T20:36:01.820Z,90566.84
2023-05-10T20:38:46.887Z,90563.16
2023-05-10T20:41:31.503Z,90557.53
2023-05-10T20:44:16.440Z,90558.69
2023-05-10T20:47:01.354Z,90553.81
2023-05-10T20:49:46.197Z,90547.69
2023-05-10T20:52:31.329Z,90546.94
2023-05-10T20:55:16.268Z,90548.63
2023-05-10T20:58:03.415Z,90550.66
2023-05-10T21:00:49.898Z,90550.66
2023-05-10T21:03:34.949Z,90552.66
2023-05-10T21:06:19.998Z,90546.41
2023-05-10T21:09:04.813Z,90555.31
2023-05-10T21:11:49.921Z,90555.53
2023-05-10T21:14:34.947Z,90556.38
2023-05-10T21:17:20.338Z,90554.69
2023-05-10T21:20:05.204Z,90550.03
2023-05-10T21:22:50.266Z,90560.81
2023-05-10T21:25:35.285Z,90550.34
2023-05-10T21:28:20.325Z,90555.75
2023-05-10T21:31:05.324Z,90565.69
2023-05-10T21:33:50.443Z,90557.00
2023-05-10T21:36:35.474Z,90560.41
2023-05-10T21:39:20.478Z,90562.69
2023-05-10T21:42:05.218Z,90562.38
2023-05-10T21:44:50.214Z,90563.94
2023-05-10T21:47:35.216Z,90570.94
2023-05-10T21:50:20.435Z,90568.81
2023-05-10T21:53:05.191Z,90569.84
2023-05-10T21:55:50.048Z,90575.25
2023-05-10T21:58:34.942Z,90580.75
2023-05-10T22:01:19.848Z,90579.50
2023-05-10T22:04:05.273Z,90582.31
2023-05-10T22:06:51.895Z,90574.19
2023-05-10T22:09:36.896Z,90575.66
2023-05-10T22:12:21.862Z,90569.44
2023-05-10T22:15:10.441Z,90565.19
2023-05-10T22:17:56.068Z,90571.97
2023-05-10T22:20:41.024Z,90567.94
2023-05-10T22:23:25.921Z,90564.69
2023-05-10T22:26:10.979Z,90569.50
2023-05-10T22:28:55.896Z,90567.81
2023-05-10T22:31:41.040Z,90573.31
2023-05-10T22:34:26.295Z,90575.97
2023-05-10T22:37:11.259Z,90577.22
2023-05-10T22:39:56.277Z,90572.78
2023-05-10T22:42:41.455Z,90569.63
2023-05-10T22:45:26.415Z,90564.13
2023-05-10T22:48:11.553Z,90567.06
2023-05-10T22:50:56.571Z,90560.81
2023-05-10T22:53:41.594Z,90554.78
2023-05-10T22:56:26.720Z,90555.63
2023-05-10T22:59:12.124Z,90555.69
2023-05-10T23:01:57.165Z,90559.69
2023-05-10T23:04:42.093Z,90571.97
2023-05-10T23:07:27.159Z,90574.75
2023-05-10T23:10:12.042Z,90567.94
2023-05-10T23:12:56.953Z,90567.88
2023-05-10T23:15:42.014Z,90571.34
2023-05-10T23:18:27.025Z,90571.88
2023-05-10T23:21:12.126Z,90564.44
2023-05-10T23:23:57.098Z,90556.78
2023-05-10T23:26:41.997Z,90554.94
2023-05-10T23:29:26.992Z,90548.94
2023-05-10T23:32:12.023Z,90556.81
2023-05-10T23:34:56.959Z,90562.28
2023-05-10T23:37:41.785Z,90561.31
2023-05-10T23:40:26.845Z,90554.34
2023-05-10T23:43:11.710Z,90560.69
2023-05-10T23:45:56.635Z,90556.97
2023-05-10T23:48:41.598Z,90557.34
2023-05-10T23:51:26.575Z,90548.84
2023-05-10T23:54:11.751Z,90548.13
2023-05-10T23:56:56.651Z,90544.66
2023-05-10T23:59:41.506Z,90543.06
